createdAt,value
2023-01-01T00:00:44.182Z,0.00
2023-01-01T00:01:44.179Z,0.00
2023-01-01T00:02:44.133Z,0.00
2023-01-01T00:03:44.178Z,0.00
2023-01-01T00:04:44.099Z,0.00
2023-01-01T00:05:44.084Z,0.00
2023-01-01T00:06:44.081Z,0.00
2023-01-01T00:07:44.058Z,0.00
2023-01-01T00:08:44.077Z,0.00
2023-01-01T00:09:44.075Z,0.00
2023-01-01T00:10:44.069Z,0.00
2023-01-01T00:11:44.046Z,0.00
2023-01-01T00:12:43.997Z,0.00
2023-01-01T00:13:43.984Z,0.00
2023-01-01T00:14:43.978Z,0.00
2023-01-01T00:15:43.944Z,0.00
2023-01-01T00:16:43.984Z,0.00
2023-01-01T00:17:43.944Z,0.00
2023-01-01T00:18:43.958Z,0.00
2023-01-01T00:19:43.944Z,0.00
2023-01-01T00:20:43.887Z,0.00
2023-01-01T00:21:43.895Z,0.00
2023-01-01T00:22:54.493Z,0.00
2023-01-01T00:23:43.872Z,0.00
2023-01-01T00:24:43.824Z,0.00
2023-01-01T00:25:43.884Z,0.00
2023-01-01T00:26:43.832Z,0.00
2023-01-01T00:27:43.844Z,0.00
2023-01-01T00:28:43.790Z,0.00
2023-01-01T00:29:43.751Z,0.00
2023-01-01T00:30:43.816Z,0.00
2023-01-01T00:31:43.772Z,0.00
2023-01-01T00:32:43.720Z,0.00
2023-01-01T00:33:43.727Z,0.00
2023-01-01T00:34:43.683Z,0.00
2023-01-01T00:35:43.675Z,0.00
2023-01-01T00:36:43.669Z,0.00
2023-01-01T00:37:46.711Z,0.00
2023-01-01T00:38:43.669Z,0.00
2023-01-01T00:39:43.623Z,0.00
2023-01-01T00:40:43.615Z,0.00
2023-01-01T00:41:43.596Z,0.00
2023-01-01T00:42:43.625Z,0.00
2023-01-01T00:43:43.579Z,0.00
2023-01-01T00:44:43.605Z,0.00
2023-01-01T00:45:43.567Z,0.00
2023-01-01T00:46:43.543Z,0.00
2023-01-01T00:47:43.505Z,0.00
2023-01-01T00:48:43.562Z,0.00
2023-01-01T00:49:43.482Z,0.00
2023-01-01T00:50:43.476Z,0.00
2023-01-01T00:51:43.455Z,0.00
2023-01-01T00:52:44.617Z,0.00
2023-01-01T00:53:43.437Z,0.00
2023-01-01T00:54:43.433Z,0.00
2023-01-01T00:55:43.393Z,0.00
2023-01-01T00:56:43.403Z,0.00
2023-01-01T00:57:43.382Z,0.00
2023-01-01T00:58:43.373Z,0.00
2023-01-01T00:59:43.355Z,0.00
2023-01-01T01:00:43.403Z,0.00
2023-01-01T01:01:43.435Z,0.00
2023-01-01T01:02:43.471Z,0.00
2023-01-01T01:03:43.325Z,0.00
2023-01-01T01:04:43.273Z,0.00
2023-01-01T01:05:43.265Z,0.00
2023-01-01T01:06:43.291Z,0.00
2023-01-01T01:07:43.244Z,0.00
2023-01-01T01:08:43.232Z,0.00
2023-01-01T01:09:43.196Z,0.00
2023-01-01T01:10:43.201Z,0.00
2023-01-01T01:11:43.209Z,0.00
2023-01-01T01:12:43.171Z,0.00
2023-01-01T01:13:43.172Z,0.00
2023-01-01T01:14:43.156Z,0.00
2023-01-01T01:15:43.126Z,0.00
2023-01-01T01:16:43.176Z,0.00
2023-01-01T01:17:43.128Z,0.00
2023-01-01T01:18:43.079Z,0.00
2023-01-01T01:19:43.109Z,0.00
2023-01-01T01:25:52.742Z,0.00
2023-01-01T01:26:52.076Z,0.00
2023-01-01T01:27:52.038Z,0.00
2023-01-01T01:28:52.035Z,0.00
2023-01-01T01:29:52.049Z,0.00
2023-01-01T01:30:52.068Z,0.00
2023-01-01T01:31:51.988Z,0.00
2023-01-01T01:32:51.961Z,0.00
2023-01-01T01:33:51.985Z,0.00
2023-01-01T01:34:51.964Z,0.00
2023-01-01T01:35:51.983Z,0.00
2023-01-01T01:36:51.916Z,0.00
2023-01-01T01:37:51.902Z,0.00
2023-01-01T01:38:51.894Z,0.00
2023-01-01T01:39:54.185Z,0.00
2023-01-01T01:40:51.865Z,0.00
2023-01-01T01:41:51.853Z,0.00
2023-01-01T01:42:51.832Z,0.00
2023-01-01T01:43:51.819Z,0.00
2023-01-01T01:44:51.864Z,0.00
2023-01-01T01:45:51.882Z,0.00
2023-01-01T01:46:51.772Z,0.00
2023-01-01T01:47:51.759Z,0.00
2023-01-01T01:48:51.762Z,0.00
2023-01-01T01:49:51.751Z,0.00
2023-01-01T01:50:51.719Z,0.00
2023-01-01T01:51:51.716Z,0.00
2023-01-01T01:52:51.746Z,0.00
2023-01-01T01:53:51.681Z,0.00
2023-01-01T01:54:51.694Z,0.00
2023-01-01T01:55:51.665Z,0.00
2023-01-01T01:56:51.749Z,0.00
2023-01-01T01:57:51.645Z,0.00
2023-01-01T01:58:51.621Z,0.00
2023-01-01T01:59:51.615Z,0.00
2023-01-01T02:00:51.635Z,0.00
2023-01-01T02:01:51.641Z,0.00
2023-01-01T02:02:51.681Z,0.00
2023-01-01T02:03:51.568Z,0.00
2023-01-01T02:04:51.573Z,0.00
2023-01-01T02:05:51.529Z,0.00
2023-01-01T02:06:51.509Z,0.00
2023-01-01T02:07:51.494Z,0.00
2023-01-01T02:08:51.491Z,0.00
2023-01-01T02:09:51.496Z,0.00
2023-01-01T02:10:51.497Z,0.00
2023-01-01T02:11:51.523Z,0.00
2023-01-01T02:12:51.427Z,0.00
2023-01-01T02:13:51.409Z,0.00
2023-01-01T02:14:51.467Z,0.00
2023-01-01T02:15:51.418Z,0.00
2023-01-01T02:16:51.378Z,0.00
2023-01-01T02:17:51.366Z,0.00
2023-01-01T02:18:51.346Z,0.00
2023-01-01T02:19:51.359Z,0.00
2023-01-01T02:20:51.350Z,0.00
2023-01-01T02:21:51.323Z,0.00
2023-01-01T02:22:51.302Z,0.00
2023-01-01T02:23:51.293Z,0.00
2023-01-01T02:24:51.320Z,0.00
2023-01-01T02:25:51.280Z,0.00
2023-01-01T02:26:51.232Z,0.00
2023-01-01T02:27:51.229Z,0.00
2023-01-01T02:28:51.203Z,0.00
2023-01-01T02:29:51.204Z,0.00
2023-01-01T02:30:51.244Z,0.00
2023-01-01T02:31:51.189Z,0.00
2023-01-01T02:32:51.161Z,0.00
2023-01-01T02:33:51.175Z,0.00
2023-01-01T02:34:51.160Z,0.00
2023-01-01T02:35:51.139Z,0.00
2023-01-01T02:36:51.466Z,0.00
2023-01-01T02:37:51.101Z,0.00
2023-01-01T02:38:51.089Z,0.00
2023-01-01T02:39:51.076Z,0.00
2023-01-01T02:40:51.081Z,0.00
2023-01-01T02:41:51.087Z,0.00
2023-01-01T02:42:51.022Z,0.00
2023-01-01T02:43:51.075Z,0.00
2023-01-01T02:44:51.038Z,0.00
2023-01-01T02:45:51.048Z,0.00
2023-01-01T02:46:53.188Z,0.00
2023-01-01T02:47:50.991Z,0.00
2023-01-01T02:48:50.945Z,0.00
2023-01-01T02:49:50.929Z,0.00
2023-01-01T02:50:59.829Z,0.00
2023-01-01T02:51:50.949Z,0.00
2023-01-01T02:52:50.893Z,0.00
2023-01-01T02:53:50.876Z,0.00
2023-01-01T02:54:50.861Z,0.00
2023-01-01T02:55:50.886Z,0.00
2023-01-01T02:56:50.932Z,0.00
2023-01-01T02:57:50.882Z,0.00
2023-01-01T02:58:50.869Z,0.00
2023-01-01T02:59:50.811Z,0.00
2023-01-01T03:00:50.834Z,0.00
2023-01-01T03:01:50.956Z,0.00
2023-01-01T03:02:51.632Z,0.00
2023-01-01T03:03:50.736Z,0.00
2023-01-01T03:04:50.726Z,0.00
2023-01-01T03:05:50.918Z,0.00
2023-01-01T03:06:50.695Z,0.00
2023-01-01T03:07:50.707Z,0.00
2023-01-01T03:08:50.665Z,0.00
2023-01-01T03:09:50.660Z,0.00
2023-01-01T03:10:50.673Z,0.00
2023-01-01T03:11:51.646Z,0.00
2023-01-01T03:12:50.619Z,0.00
2023-01-01T03:13:50.606Z,0.00
2023-01-01T03:14:50.594Z,0.00
2023-01-01T03:15:50.606Z,0.00
2023-01-01T03:16:50.568Z,0.00
2023-01-01T03:17:50.581Z,0.00
2023-01-01T03:18:50.539Z,0.00
2023-01-01T03:19:50.568Z,0.00
2023-01-01T03:20:50.548Z,0.00
2023-01-01T03:21:50.499Z,0.00
2023-01-01T03:22:50.492Z,0.00
2023-01-01T03:23:50.499Z,0.00
2023-01-01T03:24:50.511Z,0.00
2023-01-01T03:25:50.471Z,0.00
2023-01-01T03:26:50.429Z,0.00
2023-01-01T03:27:50.474Z,0.00
2023-01-01T03:28:50.399Z,0.00
2023-01-01T03:29:50.413Z,0.00
2023-01-01T03:30:50.466Z,0.00
2023-01-01T03:31:50.363Z,0.00
2023-01-01T03:32:50.345Z,0.00
2023-01-01T03:33:50.345Z,0.00
2023-01-01T03:34:50.373Z,0.00
2023-01-01T03:35:50.361Z,0.00
2023-01-01T03:36:50.292Z,0.00
2023-01-01T03:37:50.305Z,0.00
2023-01-01T03:38:50.327Z,0.00
2023-01-01T03:39:50.270Z,0.00
2023-01-01T03:40:50.311Z,0.00
2023-01-01T03:41:50.227Z,0.00
2023-01-01T03:42:50.284Z,0.00
2023-01-01T03:43:50.229Z,0.00
2023-01-01T03:44:50.209Z,0.00
2023-01-01T03:45:50.231Z,0.00
2023-01-01T03:46:50.261Z,0.00
2023-01-01T03:47:50.193Z,0.00
2023-01-01T03:48:50.124Z,0.00
2023-01-01T03:49:50.166Z,0.00
2023-01-01T03:50:50.130Z,0.00
2023-01-01T03:51:50.101Z,0.00
2023-01-01T03:52:50.080Z,0.00
2023-01-01T03:53:50.078Z,0.00
2023-01-01T03:54:55.108Z,0.00
2023-01-01T03:55:50.080Z,0.00
2023-01-01T03:56:50.088Z,0.00
2023-01-01T03:57:50.029Z,0.00
2023-01-01T03:58:50.008Z,0.00
2023-01-01T03:59:50.005Z,0.00
2023-01-01T04:00:49.976Z,0.00
2023-01-01T04:01:51.220Z,0.00
2023-01-01T04:02:50.004Z,0.00
2023-01-01T04:03:49.940Z,0.00
2023-01-01T04:09:05.659Z,0.00
2023-01-01T04:10:01.282Z,0.00
2023-01-01T04:11:01.271Z,0.00
2023-01-01T04:12:06.775Z,0.00
2023-01-01T04:13:03.427Z,0.00
2023-01-01T04:14:01.226Z,0.00
2023-01-01T04:15:24.516Z,0.00
2023-01-01T04:16:01.269Z,0.00
2023-01-01T04:17:01.205Z,0.00
2023-01-01T04:18:01.198Z,0.00
2023-01-01T04:19:01.182Z,0.00
2023-01-01T04:20:01.158Z,0.00
2023-01-01T04:21:01.148Z,0.00
2023-01-01T04:22:01.178Z,0.00
2023-01-01T04:23:01.134Z,0.00
2023-01-01T04:24:01.111Z,0.00
2023-01-01T04:25:01.077Z,0.00
2023-01-01T04:26:01.106Z,0.00
2023-01-01T04:27:01.064Z,0.00
2023-01-01T04:28:01.092Z,0.00
2023-01-01T04:29:01.047Z,0.00
2023-01-01T04:30:01.053Z,0.00
2023-01-01T04:31:32.760Z,0.00
2023-01-01T04:32:33.741Z,0.00
2023-01-01T04:33:33.737Z,0.00
2023-01-01T04:34:33.702Z,0.00
2023-01-01T04:35:33.697Z,0.00
2023-01-01T04:36:33.715Z,0.00
2023-01-01T04:37:33.708Z,0.00
2023-01-01T04:38:33.693Z,0.00
2023-01-01T04:39:33.645Z,0.00
2023-01-01T04:40:33.650Z,0.00
2023-01-01T04:41:33.653Z,0.00
2023-01-01T04:45:14.828Z,0.00
2023-01-01T04:46:13.678Z,0.00
2023-01-01T04:47:13.605Z,0.00
2023-01-01T04:51:43.692Z,0.00
2023-01-01T04:52:44.663Z,0.00
2023-01-01T04:53:44.628Z,0.00
2023-01-01T04:54:44.639Z,0.00
2023-01-01T04:55:44.612Z,0.00
2023-01-01T04:56:44.599Z,0.00
2023-01-01T04:57:44.613Z,0.00
2023-01-01T04:58:44.569Z,0.00
2023-01-01T04:59:44.594Z,0.00
2023-01-01T05:00:44.549Z,0.00
2023-01-01T05:01:44.694Z,0.00
2023-01-01T05:02:44.550Z,0.00
2023-01-01T05:03:44.513Z,0.00
2023-01-01T05:04:44.481Z,0.00
2023-01-01T05:05:51.038Z,0.00
2023-01-01T05:06:44.493Z,0.00
2023-01-01T05:07:44.443Z,0.00
2023-01-01T05:08:44.433Z,0.00
2023-01-01T05:09:44.450Z,0.00
2023-01-01T05:10:44.420Z,0.00
2023-01-01T05:11:44.420Z,0.00
2023-01-01T05:12:44.375Z,0.00
2023-01-01T05:13:44.414Z,0.00
2023-01-01T05:14:44.338Z,0.00
2023-01-01T05:15:44.347Z,0.00
2023-01-01T05:16:44.395Z,0.00
2023-01-01T05:17:44.320Z,0.00
2023-01-01T05:18:44.288Z,0.00
2023-01-01T05:19:44.277Z,0.00
2023-01-01T05:20:44.257Z,0.00
2023-01-01T05:21:44.239Z,0.00
2023-01-01T05:22:44.259Z,0.00
2023-01-01T05:23:44.250Z,0.00
2023-01-01T05:24:44.221Z,0.00
2023-01-01T05:25:44.192Z,0.00
2023-01-01T05:26:44.205Z,0.00
2023-01-01T05:27:44.195Z,0.00
2023-01-01T05:37:09.852Z,0.00
2023-01-01T05:37:48.139Z,0.00
2023-01-01T05:38:48.138Z,0.00
2023-01-01T05:39:48.126Z,0.00
2023-01-01T05:40:48.111Z,0.00
2023-01-01T05:41:48.099Z,0.00
2023-01-01T05:42:48.088Z,0.00
2023-01-01T05:43:48.073Z,0.00
2023-01-01T05:44:48.056Z,0.00
2023-01-01T05:45:48.078Z,0.00
2023-01-01T05:46:48.083Z,0.00
2023-01-01T05:47:48.080Z,0.00
2023-01-01T05:48:48.002Z,0.00
2023-01-01T05:49:48.010Z,0.00
2023-01-01T05:50:47.963Z,0.00
2023-01-01T05:51:47.961Z,0.00
2023-01-01T05:52:47.967Z,0.00
2023-01-01T05:53:47.929Z,0.00
2023-01-01T05:54:47.913Z,0.00
2023-01-01T05:55:47.947Z,0.00
2023-01-01T05:56:47.893Z,0.00
2023-01-01T05:57:47.902Z,0.00
2023-01-01T06:00:14.017Z,0.00
2023-01-01T06:01:11.632Z,0.00
2023-01-01T06:02:12.918Z,0.00
2023-01-01T06:03:12.870Z,0.00
2023-01-01T06:04:11.633Z,0.00
2023-01-01T06:05:11.572Z,0.00
2023-01-01T06:06:33.600Z,0.00
2023-01-01T06:07:11.538Z,0.00
2023-01-01T06:08:11.543Z,0.00
2023-01-01T06:09:11.515Z,0.00
2023-01-01T06:10:11.517Z,0.00
2023-01-01T06:11:11.551Z,0.00
2023-01-01T06:12:11.474Z,0.00
2023-01-01T06:13:13.551Z,0.00
2023-01-01T06:14:11.464Z,0.00
2023-01-01T06:15:11.447Z,0.00
2023-01-01T06:16:11.546Z,0.00
2023-01-01T06:17:11.422Z,0.00
2023-01-01T06:18:11.393Z,0.00
2023-01-01T06:19:11.387Z,0.00
2023-01-01T06:20:11.396Z,0.00
2023-01-01T06:21:11.356Z,0.00
2023-01-01T06:22:11.360Z,0.00
2023-01-01T06:23:11.333Z,0.00
2023-01-01T06:24:11.314Z,0.00
2023-01-01T06:25:11.310Z,0.00
2023-01-01T06:26:11.288Z,0.00
2023-01-01T06:27:11.273Z,0.00
2023-01-01T06:28:11.259Z,0.00
2023-01-01T06:29:11.234Z,0.00
2023-01-01T06:30:11.236Z,0.00
2023-01-01T06:31:11.243Z,0.00
2023-01-01T06:32:11.216Z,0.00
2023-01-01T06:33:11.184Z,0.00
2023-01-01T06:34:11.178Z,0.00
2023-01-01T06:35:11.171Z,0.00
2023-01-01T06:36:11.156Z,0.00
2023-01-01T06:37:11.137Z,0.00
2023-01-01T06:38:11.132Z,0.00
2023-01-01T06:39:11.104Z,0.00
2023-01-01T06:40:11.123Z,0.00
2023-01-01T06:41:11.101Z,0.00
2023-01-01T06:42:11.061Z,0.00
2023-01-01T06:43:11.062Z,0.00
2023-01-01T06:44:11.035Z,0.00
2023-01-01T06:45:11.025Z,0.00
2023-01-01T06:46:11.061Z,0.00
2023-01-01T06:47:11.000Z,0.00
2023-01-01T06:48:11.005Z,0.00
2023-01-01T06:49:10.979Z,0.00
2023-01-01T06:50:10.975Z,0.00
2023-01-01T06:51:10.936Z,0.00
2023-01-01T06:52:10.935Z,0.00
2023-01-01T06:53:10.956Z,0.00
2023-01-01T06:54:10.960Z,0.00
2023-01-01T06:55:10.918Z,0.00
2023-01-01T06:56:10.932Z,0.00
2023-01-01T06:57:10.907Z,0.00
2023-01-01T06:58:10.854Z,0.00
2023-01-01T06:59:10.881Z,0.00
2023-01-01T07:00:10.850Z,0.00
2023-01-01T07:01:10.969Z,0.00
2023-01-01T07:02:11.037Z,0.00
2023-01-01T07:03:11.020Z,0.00
2023-01-01T07:04:10.784Z,0.00
2023-01-01T07:05:10.753Z,0.00
2023-01-01T07:06:10.762Z,0.00
2023-01-01T07:07:10.739Z,0.00
2023-01-01T07:08:10.725Z,0.00
2023-01-01T07:09:10.734Z,0.00
2023-01-01T07:10:10.694Z,0.00
2023-01-01T07:11:10.670Z,0.00
2023-01-01T07:12:10.667Z,0.00
2023-01-01T07:13:10.643Z,0.00
2023-01-01T07:14:10.648Z,0.00
2023-01-01T07:15:10.841Z,0.00
2023-01-01T07:16:13.287Z,0.00
2023-01-01T07:17:10.593Z,0.00
2023-01-01T07:18:10.591Z,0.00
2023-01-01T07:19:10.597Z,0.00
2023-01-01T07:20:10.555Z,0.00
2023-01-01T07:21:10.536Z,0.00
2023-01-01T07:22:10.519Z,0.00
2023-01-01T07:23:10.575Z,0.00
2023-01-01T07:24:10.521Z,0.00
2023-01-01T07:25:10.490Z,0.00
2023-01-01T07:26:10.483Z,0.00
2023-01-01T07:27:10.465Z,0.00
2023-01-01T07:28:10.438Z,0.00
2023-01-01T07:29:10.450Z,0.00
2023-01-01T07:30:10.467Z,0.00
2023-01-01T07:31:10.468Z,0.00
2023-01-01T07:32:10.398Z,0.00
2023-01-01T07:33:10.378Z,0.00
2023-01-01T07:34:10.385Z,0.00
2023-01-01T07:35:10.345Z,0.00
2023-01-01T07:36:10.347Z,0.00
2023-01-01T07:37:10.356Z,0.00
2023-01-01T07:38:10.319Z,0.00
2023-01-01T07:39:10.314Z,0.00
2023-01-01T07:40:10.313Z,0.00
2023-01-01T07:41:10.311Z,0.00
2023-01-01T07:42:11.062Z,0.00
2023-01-01T07:43:10.234Z,0.00
2023-01-01T07:44:10.263Z,0.00
2023-01-01T07:45:10.226Z,0.00
2023-01-01T07:46:10.267Z,0.00
2023-01-01T07:47:10.189Z,0.00
2023-01-01T07:48:10.232Z,0.00
2023-01-01T07:49:10.187Z,0.00
2023-01-01T07:50:10.199Z,0.00
2023-01-01T07:51:10.175Z,0.00
2023-01-01T07:52:10.167Z,0.00
2023-01-01T07:53:10.139Z,0.00
2023-01-01T07:54:10.109Z,0.00
2023-01-01T07:55:10.100Z,0.00
2023-01-01T07:56:10.068Z,0.00
2023-01-01T07:57:10.064Z,0.00
2023-01-01T07:58:10.072Z,0.00
2023-01-01T07:59:10.511Z,0.00
2023-01-01T08:00:10.053Z,0.00
2023-01-01T08:01:10.072Z,0.00
2023-01-01T08:02:10.134Z,0.00
2023-01-01T08:03:10.143Z,0.00
2023-01-01T08:04:10.010Z,0.00
2023-01-01T08:05:10.085Z,0.00
2023-01-01T08:06:10.012Z,0.00
2023-01-01T08:07:09.973Z,0.00
2023-01-01T08:08:09.963Z,0.00
2023-01-01T08:09:09.930Z,0.00
2023-01-01T08:10:10.021Z,0.00
2023-01-01T08:11:09.940Z,0.00
2023-01-01T08:12:09.941Z,0.00
2023-01-01T08:13:09.910Z,0.00
2023-01-01T08:14:09.900Z,0.00
2023-01-01T08:15:09.921Z,0.00
2023-01-01T08:16:09.908Z,0.00
2023-01-01T08:17:09.832Z,0.00
2023-01-01T08:18:09.824Z,0.00
2023-01-01T08:19:09.826Z,0.00
2023-01-01T08:20:09.880Z,0.00
2023-01-01T08:21:09.833Z,0.00
2023-01-01T08:22:09.733Z,0.00
2023-01-01T08:23:09.792Z,0.00
2023-01-01T08:24:09.763Z,0.00
2023-01-01T08:25:09.774Z,0.00
2023-01-01T08:26:09.750Z,0.00
2023-01-01T08:27:09.800Z,0.00
2023-01-01T08:28:09.782Z,0.00
2023-01-01T08:29:09.675Z,0.00
2023-01-01T08:30:09.760Z,0.00
2023-01-01T08:31:09.748Z,0.00
2023-01-01T08:32:09.645Z,0.00
2023-01-01T08:33:09.588Z,0.00
2023-01-01T08:34:09.710Z,0.00
2023-01-01T08:35:09.618Z,0.00
2023-01-01T08:36:09.552Z,0.00
2023-01-01T08:37:09.548Z,0.00
2023-01-01T08:38:09.530Z,0.00
2023-01-01T08:39:09.524Z,0.00
2023-01-01T08:40:09.489Z,0.00
2023-01-01T08:41:09.502Z,0.00
2023-01-01T08:42:12.366Z,0.00
2023-01-01T08:43:09.486Z,0.00
2023-01-01T08:44:09.456Z,0.00
2023-01-01T08:45:09.430Z,0.00
2023-01-01T08:46:09.438Z,0.00
2023-01-01T08:47:09.418Z,0.00
2023-01-01T08:48:09.411Z,0.00
2023-01-01T08:49:09.359Z,0.00
2023-01-01T08:50:09.378Z,0.00
2023-01-01T08:51:09.519Z,0.00
2023-01-01T08:52:09.369Z,5.62
2023-01-01T08:53:09.375Z,0.00
2023-01-01T08:54:09.332Z,0.00
2023-01-01T08:55:09.328Z,0.00
2023-01-01T08:56:09.392Z,0.00
2023-01-01T08:57:09.261Z,0.00
2023-01-01T08:58:09.274Z,0.00
2023-01-01T08:59:09.261Z,0.00
2023-01-01T09:00:09.265Z,0.00
2023-01-01T09:01:09.264Z,0.00
2023-01-01T09:02:09.427Z,0.00
2023-01-01T09:03:09.311Z,0.00
2023-01-01T09:04:15.308Z,0.00
2023-01-01T09:05:09.191Z,0.00
2023-01-01T09:06:09.158Z,0.00
2023-01-01T09:07:09.118Z,0.00
2023-01-01T09:08:09.115Z,0.00
2023-01-01T09:09:09.207Z,0.00
2023-01-01T09:10:09.128Z,0.00
2023-01-01T09:11:09.070Z,0.00
2023-01-01T09:12:09.051Z,0.00
2023-01-01T09:13:09.037Z,0.00
2023-01-01T09:14:09.069Z,0.00
2023-01-01T09:15:09.072Z,0.00
2023-01-01T09:16:09.023Z,5.62
2023-01-01T09:17:08.988Z,5.62
2023-01-01T09:18:08.993Z,5.62
2023-01-01T09:19:09.040Z,5.62
2023-01-01T09:20:08.985Z,5.62
2023-01-01T09:21:08.951Z,5.62
2023-01-01T09:22:09.066Z,11.25
2023-01-01T09:23:08.909Z,5.62
2023-01-01T09:24:08.950Z,5.62
2023-01-01T09:25:08.890Z,5.62
2023-01-01T09:26:08.918Z,5.62
2023-01-01T09:27:08.863Z,5.62
2023-01-01T09:28:08.856Z,5.62
2023-01-01T09:29:08.850Z,5.62
2023-01-01T09:30:08.828Z,5.62
2023-01-01T09:31:08.962Z,5.62
2023-01-01T09:32:08.777Z,5.62
2023-01-01T09:33:08.773Z,5.62
2023-01-01T09:34:08.749Z,5.62
2023-01-01T09:35:08.753Z,5.62
2023-01-01T09:36:08.800Z,0.00
2023-01-01T09:37:08.799Z,0.00
2023-01-01T09:38:08.697Z,0.00
2023-01-01T09:39:08.707Z,0.00
2023-01-01T09:40:08.722Z,0.00
2023-01-01T09:41:08.690Z,5.62
2023-01-01T09:42:08.657Z,5.62
2023-01-01T09:43:08.647Z,5.62
2023-01-01T09:44:08.648Z,5.62
2023-01-01T09:45:08.659Z,5.62
2023-01-01T09:46:08.739Z,0.00
2023-01-01T09:47:08.600Z,0.00
2023-01-01T09:48:08.582Z,5.62
2023-01-01T09:49:08.555Z,5.62
2023-01-01T09:50:08.585Z,5.62
2023-01-01T09:51:08.566Z,5.62
2023-01-01T09:52:08.630Z,5.62
2023-01-01T09:53:08.544Z,5.62
2023-01-01T09:54:08.549Z,5.62
2023-01-01T09:55:08.528Z,5.62
2023-01-01T09:56:08.494Z,0.00
2023-01-01T09:57:08.475Z,5.62
2023-01-01T09:58:08.604Z,0.00
2023-01-01T09:59:08.497Z,0.00
2023-01-01T10:00:08.411Z,0.00
2023-01-01T10:01:08.494Z,0.00
2023-01-01T10:02:08.641Z,0.00
2023-01-01T10:03:08.412Z,0.00
2023-01-01T10:04:08.416Z,0.00
2023-01-01T10:05:08.358Z,0.00
2023-01-01T10:06:08.352Z,5.62
2023-01-01T10:07:08.359Z,5.62
2023-01-01T10:08:08.322Z,5.62
2023-01-01T10:09:08.293Z,5.62
2023-01-01T10:10:08.314Z,5.62
2023-01-01T10:11:08.295Z,5.62
2023-01-01T10:12:08.298Z,11.25
2023-01-01T10:13:08.235Z,11.25
2023-01-01T10:14:08.284Z,11.25
2023-01-01T10:15:08.327Z,11.25
2023-01-01T10:16:08.268Z,11.25
2023-01-01T10:17:08.194Z,11.25
2023-01-01T10:18:08.191Z,11.25
2023-01-01T10:19:08.218Z,5.62
2023-01-01T10:20:08.145Z,11.25
2023-01-01T10:21:08.257Z,5.62
2023-01-01T10:22:08.153Z,5.62
2023-01-01T10:23:08.136Z,11.25
2023-01-01T10:24:08.094Z,11.25
2023-01-01T10:25:08.139Z,5.62
2023-01-01T10:26:08.200Z,5.62
2023-01-01T10:27:08.150Z,5.62
2023-01-01T10:28:08.091Z,5.62
2023-01-01T10:29:08.137Z,5.62
2023-01-01T10:30:08.058Z,5.62
2023-01-01T10:31:07.994Z,5.62
2023-01-01T10:32:08.161Z,5.62
2023-01-01T10:33:08.075Z,5.62
2023-01-01T10:34:07.939Z,0.00
2023-01-01T10:35:08.005Z,5.62
2023-01-01T10:36:07.931Z,5.62
2023-01-01T10:37:07.963Z,5.62
2023-01-01T10:38:07.923Z,5.62
2023-01-01T10:39:07.920Z,5.62
2023-01-01T10:40:07.928Z,5.62
2023-01-01T10:41:10.852Z,5.62
2023-01-01T10:42:07.881Z,11.25
2023-01-01T10:43:07.827Z,16.88
2023-01-01T10:44:07.820Z,16.88
2023-01-01T10:45:07.804Z,11.25
2023-01-01T10:46:07.833Z,5.62
2023-01-01T10:47:07.835Z,5.62
2023-01-01T10:48:07.765Z,11.25
2023-01-01T10:49:07.782Z,22.50
2023-01-01T11:00:34.993Z,39.38
2023-01-01T11:01:07.837Z,39.38
2023-01-01T11:06:13.790Z,61.88
2023-01-01T11:13:20.982Z,50.62
2023-01-01T11:15:43.525Z,56.25
2023-01-01T11:16:34.472Z,61.88
2023-01-01T11:17:34.385Z,67.50
2023-01-01T11:18:34.397Z,73.12
2023-01-01T11:32:04.520Z,73.12
2023-01-01T11:32:55.392Z,73.12
2023-01-01T11:33:50.901Z,73.12
2023-01-01T11:34:50.873Z,67.50
2023-01-01T11:35:50.861Z,61.88
2023-01-01T11:36:50.933Z,67.50
2023-01-01T11:37:51.015Z,67.50
2023-01-01T11:39:11.986Z,73.12
2023-01-01T11:39:50.936Z,78.75
2023-01-01T11:41:12.927Z,78.75
2023-01-01T11:44:45.131Z,73.12
2023-01-01T11:45:40.800Z,73.12
2023-01-01T11:50:28.580Z,56.25
2023-01-01T11:51:22.351Z,56.25
2023-01-01T11:52:22.346Z,61.88
2023-01-01T11:53:22.344Z,61.88
2023-01-01T11:54:22.313Z,61.88
2023-01-01T11:55:22.360Z,67.50
2023-01-01T11:56:22.298Z,61.88
2023-01-01T11:57:22.293Z,61.88
2023-01-01T11:58:22.260Z,61.88
2023-01-01T11:59:22.252Z,61.88
2023-01-01T12:00:22.236Z,61.88
2023-01-01T12:01:22.238Z,61.88
2023-01-01T12:02:22.284Z,61.88
2023-01-01T12:03:22.256Z,61.88
2023-01-01T12:04:22.307Z,67.50
2023-01-01T12:05:22.175Z,67.50
2023-01-01T12:06:22.155Z,67.50
2023-01-01T12:07:22.144Z,73.12
2023-01-01T12:09:33.376Z,61.88
2023-01-01T12:10:34.357Z,56.25
2023-01-01T12:11:34.380Z,56.25
2023-01-01T12:12:34.360Z,56.25
2023-01-01T12:13:34.364Z,56.25
2023-01-01T12:14:34.321Z,61.88
2023-01-01T12:15:34.411Z,67.50
2023-01-01T12:16:34.293Z,61.88
2023-01-01T12:17:34.292Z,61.88
2023-01-01T12:18:34.251Z,50.62
2023-01-01T12:19:34.259Z,45.00
2023-01-01T12:20:34.247Z,61.88
2023-01-01T12:21:34.225Z,56.25
2023-01-01T12:22:34.230Z,61.88
2023-01-01T12:23:34.216Z,73.12
2023-01-01T12:24:34.177Z,56.25
2023-01-01T12:25:34.165Z,56.25
2023-01-01T12:26:34.168Z,61.88
2023-01-01T12:27:34.158Z,50.62
2023-01-01T12:28:34.143Z,45.00
2023-01-01T12:29:34.115Z,39.38
2023-01-01T12:30:34.103Z,39.38
2023-01-01T12:31:34.095Z,45.00
2023-01-01T12:32:34.060Z,56.25
2023-01-01T12:33:34.057Z,50.62
2023-01-01T12:34:34.033Z,50.62
2023-01-01T12:35:34.029Z,50.62
2023-01-01T12:36:34.033Z,50.62
2023-01-01T12:37:34.006Z,50.62
2023-01-01T12:38:34.000Z,50.62
2023-01-01T12:39:33.976Z,45.00
2023-01-01T12:40:33.954Z,45.00
2023-01-01T12:41:33.955Z,39.38
2023-01-01T12:42:33.939Z,39.38
2023-01-01T12:43:33.990Z,33.75
2023-01-01T12:44:33.922Z,33.75
2023-01-01T12:45:33.907Z,39.38
2023-01-01T12:46:34.023Z,45.00
2023-01-01T12:47:33.864Z,45.00
2023-01-01T12:48:33.851Z,39.38
2023-01-01T12:49:33.879Z,45.00
2023-01-01T12:50:33.822Z,39.38
2023-01-01T12:51:33.827Z,39.38
2023-01-01T12:52:33.802Z,39.38
2023-01-01T12:53:33.794Z,33.75
2023-01-01T12:54:33.773Z,33.75
2023-01-01T12:55:33.766Z,28.12
2023-01-01T12:56:33.760Z,28.12
2023-01-01T12:57:33.768Z,22.50
2023-01-01T12:58:33.750Z,22.50
2023-01-01T12:59:33.711Z,33.75
2023-01-01T13:00:33.694Z,33.75
2023-01-01T13:01:34.561Z,45.00
2023-01-01T13:02:33.864Z,45.00
2023-01-01T13:03:33.695Z,45.00
2023-01-01T13:04:54.718Z,45.00
2023-01-01T13:05:33.630Z,39.38
2023-01-01T13:06:33.644Z,39.38
2023-01-01T13:07:33.619Z,39.38
2023-01-01T13:08:33.598Z,39.38
2023-01-01T13:09:33.583Z,39.38
2023-01-01T13:10:33.568Z,39.38
2023-01-01T13:11:33.546Z,39.38
2023-01-01T13:12:58.155Z,39.38
2023-01-01T13:13:33.547Z,39.38
2023-01-01T13:14:33.501Z,39.38
2023-01-01T13:15:33.499Z,39.38
2023-01-01T13:16:33.531Z,39.38
2023-01-01T13:17:33.681Z,39.38
2023-01-01T13:18:33.481Z,39.38
2023-01-01T13:19:33.456Z,39.38
2023-01-01T13:20:33.421Z,39.38
2023-01-01T13:21:33.479Z,39.38
2023-01-01T13:22:34.511Z,39.38
2023-01-01T13:23:33.405Z,39.38
2023-01-01T13:24:33.371Z,45.00
2023-01-01T13:25:33.395Z,39.38
2023-01-01T13:26:33.435Z,39.38
2023-01-01T13:27:33.531Z,39.38
2023-01-01T13:28:33.336Z,33.75
2023-01-01T13:29:34.379Z,33.75
2023-01-01T13:30:33.289Z,28.12
2023-01-01T13:31:33.334Z,28.12
2023-01-01T13:32:33.267Z,28.12
2023-01-01T13:33:47.341Z,28.12
2023-01-01T13:34:33.227Z,22.50
2023-01-01T13:35:33.231Z,22.50
2023-01-01T13:36:33.212Z,22.50
2023-01-01T13:37:33.190Z,28.12
2023-01-01T13:38:33.213Z,28.12
2023-01-01T13:39:33.164Z,28.12
2023-01-01T13:40:33.166Z,33.75
2023-01-01T13:41:33.167Z,33.75
2023-01-01T13:42:33.145Z,33.75
2023-01-01T13:43:33.169Z,39.38
2023-01-01T13:44:33.145Z,39.38
2023-01-01T13:46:33.257Z,39.38
2023-01-01T13:47:33.118Z,39.38
2023-01-01T13:48:33.095Z,33.75
2023-01-01T13:49:33.072Z,33.75
2023-01-01T13:50:33.057Z,33.75
2023-01-01T13:52:04.066Z,33.75
2023-01-01T13:52:33.043Z,33.75
2023-01-01T13:53:33.038Z,33.75
2023-01-01T13:54:32.998Z,33.75
2023-01-01T13:55:32.950Z,33.75
2023-01-01T13:56:32.979Z,33.75
2023-01-01T13:57:32.965Z,33.75
2023-01-01T13:58:32.983Z,33.75
2023-01-01T13:59:32.914Z,28.12
2023-01-01T14:00:32.951Z,28.12
2023-01-01T14:01:33.238Z,28.12
2023-01-01T14:02:33.023Z,28.12
2023-01-01T14:03:32.921Z,28.12
2023-01-01T14:04:32.864Z,28.12
2023-01-01T14:05:32.845Z,22.50
2023-01-01T14:06:32.844Z,22.50
2023-01-01T14:07:50.872Z,22.50
2023-01-01T14:08:32.799Z,22.50
2023-01-01T14:09:32.843Z,22.50
2023-01-01T14:10:32.795Z,22.50
2023-01-01T14:11:32.778Z,22.50
2023-01-01T14:12:32.763Z,22.50
2023-01-01T14:13:32.719Z,22.50
2023-01-01T14:14:32.748Z,22.50
2023-01-01T14:15:32.691Z,16.88
2023-01-01T14:16:32.691Z,16.88
2023-01-01T14:17:32.712Z,16.88
2023-01-01T14:18:32.645Z,16.88
2023-01-01T14:19:32.635Z,16.88
2023-01-01T14:20:32.638Z,16.88